createdAt,value
2019-05-19T00:01:41.068Z,46.10
2019-05-19T00:04:12.026Z,46.15
2019-05-19T00:06:43.485Z,46.21
2019-05-19T00:09:16.621Z,46.32
2019-05-19T00:11:47.130Z,46.41
2019-05-19T00:14:18.095Z,46.43
2019-05-19T00:16:49.071Z,46.46
2019-05-19T00:19:26.576Z,46.48
2019-05-19T00:21:52.766Z,46.49
2019-05-19T00:24:23.780Z,46.45
2019-05-19T00:26:54.756Z,46.52
2019-05-19T00:29:25.738Z,46.60
2019-05-19T00:31:56.670Z,46.63
2019-05-19T00:34:27.663Z,46.62
2019-05-19T00:36:58.643Z,46.60
2019-05-19T00:39:29.740Z,46.60
2019-05-19T00:42:00.708Z,46.61
2019-05-19T00:44:31.704Z,46.66
2019-05-19T00:47:02.673Z,46.65
2019-05-19T00:49:41.515Z,46.69
2019-05-19T00:52:06.312Z,46.70
2019-05-19T00:54:37.307Z,46.81
2019-05-19T00:57:08.350Z,46.83
2019-05-19T00:59:39.479Z,46.85
2019-05-19T01:02:10.473Z,46.89
2019-05-19T01:04:41.441Z,46.90
2019-05-19T01:07:12.454Z,46.94
2019-05-19T01:09:44.702Z,47.05
2019-05-19T01:12:15.694Z,47.06
2019-05-19T01:14:46.684Z,47.10
2019-05-19T01:17:18.933Z,47.15
2019-05-19T01:19:56.012Z,47.21
2019-05-19T01:22:22.665Z,47.15
2019-05-19T01:24:53.668Z,47.11
2019-05-19T01:27:24.717Z,47.11
2019-05-19T01:29:55.676Z,47.16
2019-05-19T01:32:26.655Z,47.17
2019-05-19T01:34:57.628Z,47.15
2019-05-19T01:37:28.635Z,47.27
2019-05-19T01:40:00.698Z,47.33
2019-05-19T01:42:31.679Z,47.35
2019-05-19T01:45:02.732Z,47.33
2019-05-19T01:47:33.693Z,47.35
2019-05-19T01:50:17.548Z,47.34
2019-05-19T01:52:39.341Z,47.44
2019-05-19T01:55:10.649Z,47.53
2019-05-19T01:57:41.614Z,47.50
2019-05-19T02:00:13.650Z,47.50
2019-05-19T02:02:44.641Z,47.52
2019-05-19T02:05:15.824Z,47.56
2019-05-19T02:07:46.828Z,47.58
2019-05-19T02:10:17.897Z,47.65
2019-05-19T02:12:48.913Z,47.70
2019-05-19T02:15:21.168Z,47.71
2019-05-19T02:17:52.132Z,47.80
2019-05-19T02:20:32.618Z,47.84
2019-05-19T02:22:57.032Z,47.87
2019-05-19T02:25:27.998Z,47.93
2019-05-19T02:27:59.338Z,47.93
2019-05-19T02:30:30.311Z,47.99
2019-05-19T02:33:01.352Z,47.96
2019-05-19T02:35:32.335Z,47.99
2019-05-19T02:38:03.309Z,48.07
2019-05-19T02:40:34.947Z,48.09
2019-05-19T02:43:05.927Z,48.12
2019-05-19T02:45:37.661Z,48.14
2019-05-19T02:48:08.702Z,48.14
2019-05-19T02:50:51.462Z,48.14
2019-05-19T02:53:12.904Z,48.10
2019-05-19T02:55:45.144Z,48.11
2019-05-19T02:58:16.382Z,48.21
2019-05-19T03:00:47.377Z,48.27
2019-05-19T03:03:18.343Z,48.23
2019-05-19T03:05:49.354Z,48.30
2019-05-19T03:08:20.316Z,48.29
2019-05-19T03:10:51.288Z,48.33
2019-05-19T03:13:22.264Z,48.45
2019-05-19T03:15:53.225Z,48.38
2019-05-19T03:18:24.213Z,48.42
2019-05-19T03:21:09.880Z,48.49
2019-05-19T03:23:27.842Z,48.55
2019-05-19T03:25:58.803Z,48.56
2019-05-19T03:28:29.787Z,48.62
2019-05-19T03:31:18.644Z,48.58
2019-05-19T03:33:51.238Z,48.64
2019-05-19T03:36:22.202Z,48.68
2019-05-19T03:38:53.177Z,48.72
2019-05-19T03:41:25.153Z,48.72
2019-05-19T03:43:56.127Z,48.74
2019-05-19T03:46:27.096Z,48.69
2019-05-19T03:48:58.715Z,48.73
2019-05-19T03:51:32.040Z,48.73
2019-05-19T03:54:03.123Z,48.76
2019-05-19T03:56:34.101Z,48.83
2019-05-19T03:59:05.090Z,48.85
2019-05-19T04:01:36.075Z,48.87
2019-05-19T04:04:07.072Z,48.86
2019-05-19T04:06:38.049Z,48.86
2019-05-19T04:09:09.043Z,48.92
2019-05-19T04:11:40.055Z,48.98
2019-05-19T04:14:11.024Z,49.06
2019-05-19T04:16:41.997Z,49.15
2019-05-19T04:19:12.990Z,49.24
2019-05-19T04:21:48.828Z,49.25
2019-05-19T04:24:17.086Z,49.33
2019-05-19T04:26:48.051Z,49.41
2019-05-19T04:29:19.107Z,49.54
2019-05-19T04:31:50.117Z,49.58
2019-05-19T04:34:21.097Z,49.66
2019-05-19T04:36:52.122Z,49.79
2019-05-19T04:39:23.112Z,49.87
2019-05-19T04:41:54.091Z,49.89
2019-05-19T04:44:26.367Z,50.00
2019-05-19T04:46:57.332Z,50.09
2019-05-19T04:49:28.353Z,50.06
2019-05-19T04:52:06.624Z,50.12
2019-05-19T04:54:32.002Z,50.23
2019-05-19T04:57:02.992Z,50.29
2019-05-19T04:59:33.967Z,50.09
2019-05-19T05:02:04.950Z,50.33
2019-05-19T05:04:35.962Z,50.22
2019-05-19T05:07:06.958Z,50.26
2019-05-19T05:09:39.246Z,50.20
2019-05-19T05:12:10.231Z,50.43
2019-05-19T05:14:41.223Z,50.48
2019-05-19T05:17:12.200Z,50.53
2019-05-19T05:19:43.198Z,50.52
2019-05-19T05:22:21.826Z,50.86
2019-05-19T05:24:46.867Z,50.61
2019-05-19T05:27:17.835Z,50.38
2019-05-19T05:29:48.826Z,50.54
2019-05-19T05:32:19.818Z,50.68
2019-05-19T05:34:50.799Z,50.86
2019-05-19T05:37:21.788Z,50.85
2019-05-19T05:39:53.431Z,50.75
2019-05-19T05:42:24.479Z,50.45
2019-05-19T05:44:55.531Z,50.49
2019-05-19T05:47:26.525Z,50.46
2019-05-19T05:49:57.514Z,50.63
2019-05-19T05:52:37.934Z,50.68
2019-05-19T05:55:01.169Z,50.63
2019-05-19T05:57:32.165Z,50.50
2019-05-19T06:00:03.694Z,50.33
2019-05-19T06:02:34.704Z,50.39
2019-05-19T06:05:06.691Z,50.56
2019-05-19T06:07:38.769Z,50.72
2019-05-19T06:10:10.853Z,50.72
2019-05-19T06:12:41.818Z,50.93
2019-05-19T06:15:12.944Z,51.04
2019-05-19T06:17:44.100Z,51.11
2019-05-19T06:20:15.140Z,51.09
2019-05-19T06:22:56.028Z,51.07
2019-05-19T06:25:18.808Z,50.92
2019-05-19T06:27:49.845Z,50.90
2019-05-19T06:30:20.903Z,50.99
2019-05-19T06:32:53.606Z,50.82
2019-05-19T06:35:25.215Z,50.96
2019-05-19T06:37:56.318Z,51.13
2019-05-19T06:40:27.279Z,51.32
2019-05-19T06:42:58.292Z,51.28
2019-05-19T06:45:29.324Z,50.85
2019-05-19T06:48:00.285Z,50.90
2019-05-19T06:50:31.267Z,51.05
2019-05-19T06:53:13.561Z,51.21
2019-05-19T06:55:34.975Z,51.02
2019-05-19T06:58:05.974Z,50.71
2019-05-19T07:00:37.967Z,50.79
2019-05-19T07:03:08.970Z,50.91
2019-05-19T07:05:39.938Z,49.99
2019-05-19T07:08:10.925Z,49.56
2019-05-19T07:10:41.897Z,49.25
2019-05-19T07:13:12.861Z,49.67
2019-05-19T07:15:43.845Z,49.40
2019-05-19T07:18:14.823Z,49.57
2019-05-19T07:20:45.801Z,49.75
2019-05-19T07:23:36.590Z,49.69
2019-05-19T07:26:07.573Z,49.27
2019-05-19T07:28:38.595Z,49.50
2019-05-19T07:31:09.568Z,49.17
2019-05-19T07:33:44.615Z,48.93
2019-05-19T07:36:15.563Z,48.31
2019-05-19T07:38:49.809Z,48.52
2019-05-19T07:41:20.782Z,48.66
2019-05-19T07:43:52.142Z,48.83
2019-05-19T07:46:23.094Z,48.34
2019-05-19T07:48:54.082Z,48.36
2019-05-19T07:51:25.065Z,48.24
2019-05-19T07:53:56.108Z,48.31
2019-05-19T07:56:28.733Z,47.52
2019-05-19T07:59:00.673Z,47.11
2019-05-19T08:01:32.435Z,47.04
2019-05-19T08:04:03.394Z,46.58
2019-05-19T08:06:34.730Z,46.41
2019-05-19T08:09:06.919Z,45.97
2019-05-19T08:11:41.908Z,46.04
2019-05-19T08:14:15.639Z,46.46
2019-05-19T08:16:46.677Z,46.85
2019-05-19T08:19:19.300Z,46.87
2019-05-19T08:21:51.199Z,45.94
2019-05-19T08:24:22.201Z,46.32
2019-05-19T08:26:53.241Z,45.73
2019-05-19T08:29:24.275Z,45.12
2019-05-19T08:31:55.293Z,45.53
2019-05-19T08:34:26.355Z,45.52
2019-05-19T08:36:57.351Z,45.58
2019-05-19T08:39:28.357Z,44.66
2019-05-19T08:42:04.711Z,44.22
2019-05-19T08:44:38.118Z,43.76
2019-05-19T08:47:09.146Z,44.06
2019-05-19T08:49:44.291Z,43.80
2019-05-19T08:52:15.262Z,43.54
2019-05-19T08:54:46.259Z,43.28
2019-05-19T08:57:17.409Z,42.45
2019-05-19T08:59:48.579Z,42.23
2019-05-19T09:02:19.556Z,42.29
2019-05-19T09:04:50.547Z,41.73
2019-05-19T09:07:21.515Z,41.92
2019-05-19T09:09:52.512Z,41.81
2019-05-19T09:12:23.502Z,41.63
2019-05-19T09:14:54.493Z,41.51
2019-05-19T09:17:25.444Z,41.14
2019-05-19T09:19:57.185Z,41.28
2019-05-19T09:22:28.187Z,40.75
2019-05-19T09:24:59.178Z,40.55
2019-05-19T09:27:30.150Z,40.43
2019-05-19T09:30:01.588Z,40.13
2019-05-19T09:32:32.644Z,40.13
2019-05-19T09:35:03.998Z,40.05
2019-05-19T09:37:35.354Z,39.17
2019-05-19T09:40:13.691Z,39.54
2019-05-19T09:42:44.680Z,39.81
2019-05-19T09:45:15.911Z,39.78
2019-05-19T09:47:46.910Z,39.53
2019-05-19T09:50:18.976Z,39.01
2019-05-19T09:52:51.007Z,38.92
2019-05-19T09:55:21.981Z,38.74
2019-05-19T09:57:52.961Z,38.57
2019-05-19T10:00:24.131Z,38.34
2019-05-19T10:02:55.102Z,38.21
2019-05-19T10:05:26.057Z,38.28
2019-05-19T10:07:57.505Z,38.32
2019-05-19T10:10:39.279Z,38.32
2019-05-19T10:13:10.260Z,38.08
2019-05-19T10:15:41.229Z,38.24
2019-05-19T10:18:12.223Z,38.16
2019-05-19T10:20:43.182Z,38.00
2019-05-19T10:23:14.161Z,37.92
2019-05-19T10:25:45.118Z,37.90
2019-05-19T10:28:16.108Z,38.00
2019-05-19T10:30:47.133Z,37.87
2019-05-19T10:33:18.102Z,38.08
2019-05-19T10:35:49.085Z,37.96
2019-05-19T10:38:20.062Z,37.95
2019-05-19T10:40:51.013Z,37.91
2019-05-19T10:43:21.994Z,37.54
2019-05-19T10:46:03.270Z,37.36
2019-05-19T10:48:34.223Z,37.31
2019-05-19T10:51:05.241Z,37.26
2019-05-19T10:53:36.187Z,37.24
2019-05-19T10:56:07.209Z,36.96
2019-05-19T10:58:38.356Z,36.69
2019-05-19T11:01:09.387Z,36.80
2019-05-19T11:03:40.453Z,36.70
2019-05-19T11:06:11.419Z,36.55
2019-05-19T11:08:42.380Z,36.15
2019-05-19T11:11:13.351Z,35.88
2019-05-19T11:13:44.337Z,35.54
2019-05-19T11:16:15.293Z,35.51
2019-05-19T11:18:46.295Z,35.42
2019-05-19T11:21:17.315Z,34.92
2019-05-19T11:23:49.050Z,34.86
2019-05-19T11:26:20.048Z,34.79
2019-05-19T11:28:51.000Z,34.81
2019-05-19T11:31:21.964Z,34.58
2019-05-19T11:33:53.310Z,34.19
2019-05-19T11:36:24.267Z,33.88
2019-05-19T11:38:55.225Z,34.23
2019-05-19T11:41:26.198Z,33.79
2019-05-19T11:43:57.964Z,34.11
2019-05-19T11:46:29.036Z,34.20
2019-05-19T11:49:00.092Z,34.08
2019-05-19T11:51:31.186Z,34.00
2019-05-19T11:54:02.247Z,34.06
2019-05-19T11:56:33.339Z,33.70
2019-05-19T11:59:04.384Z,33.10
2019-05-19T12:01:35.487Z,32.77
2019-05-19T12:04:06.565Z,32.87
2019-05-19T12:06:40.008Z,32.59
2019-05-19T12:09:11.384Z,32.50
2019-05-19T12:11:42.434Z,32.52
2019-05-19T12:14:13.503Z,32.53
2019-05-19T12:16:44.582Z,32.89
2019-05-19T12:19:15.661Z,32.70
2019-05-19T12:21:46.733Z,32.56
2019-05-19T12:24:17.831Z,32.51
2019-05-19T12:26:48.945Z,32.46
2019-05-19T12:29:20.518Z,32.66
2019-05-19T12:31:52.646Z,32.39
2019-05-19T12:34:24.807Z,32.19
2019-05-19T12:36:55.871Z,32.21
2019-05-19T12:39:26.955Z,32.17
2019-05-19T12:41:58.013Z,31.85
2019-05-19T12:44:29.085Z,32.01
2019-05-19T12:47:00.629Z,31.85
2019-05-19T12:49:31.723Z,31.29
2019-05-19T12:52:02.787Z,31.17
2019-05-19T12:54:33.925Z,31.11
2019-05-19T12:57:05.065Z,31.19
2019-05-19T12:59:36.157Z,31.38
2019-05-19T13:02:07.215Z,31.24
2019-05-19T13:04:38.505Z,31.05
2019-05-19T13:07:09.755Z,31.12
2019-05-19T13:09:40.827Z,31.06
2019-05-19T13:12:11.897Z,30.94
2019-05-19T13:14:42.960Z,30.67
2019-05-19T13:17:14.021Z,30.88
2019-05-19T13:19:45.106Z,31.04
2019-05-19T13:22:16.160Z,30.58
2019-05-19T13:24:47.233Z,30.45
2019-05-19T13:27:18.425Z,30.19
2019-05-19T13:29:49.475Z,30.10
2019-05-19T13:32:20.525Z,30.28
2019-05-19T13:34:51.596Z,30.36
2019-05-19T13:37:22.652Z,30.51
2019-05-19T13:39:54.091Z,30.30
2019-05-19T13:42:25.144Z,30.43
2019-05-19T13:44:56.209Z,30.52
2019-05-19T13:47:27.257Z,30.21
2019-05-19T13:49:58.327Z,29.60
2019-05-19T13:52:29.383Z,29.71
2019-05-19T13:55:00.453Z,29.77
2019-05-19T13:57:31.513Z,30.42
2019-05-19T14:00:02.657Z,30.22
2019-05-19T14:02:33.737Z,29.94
2019-05-19T14:05:05.342Z,29.81
2019-05-19T14:07:37.493Z,29.65
2019-05-19T14:10:09.197Z,29.51
2019-05-19T14:12:40.255Z,29.36
2019-05-19T14:15:11.621Z,29.44
2019-05-19T14:17:42.684Z,29.50
2019-05-19T14:20:14.583Z,29.36
2019-05-19T14:22:45.650Z,29.28
2019-05-19T14:25:17.400Z,29.31
2019-05-19T14:27:48.456Z,29.17
2019-05-19T14:30:20.493Z,28.96
2019-05-19T14:32:51.553Z,28.94
2019-05-19T14:35:22.624Z,29.04
2019-05-19T14:37:53.724Z,29.18
2019-05-19T14:40:24.773Z,29.20
2019-05-19T14:43:00.166Z,29.34
2019-05-19T14:45:31.328Z,29.45
2019-05-19T14:48:02.414Z,29.60
2019-05-19T14:50:33.482Z,29.46
2019-05-19T14:53:04.549Z,29.64
2019-05-19T14:55:35.638Z,29.72
2019-05-19T14:58:06.710Z,29.99
2019-05-19T15:00:38.827Z,29.92
2019-05-19T15:03:10.687Z,29.99
2019-05-19T15:05:41.757Z,30.23
2019-05-19T15:08:13.481Z,30.59
2019-05-19T15:10:45.489Z,31.03
2019-05-19T15:13:17.311Z,30.97
2019-05-19T15:15:48.369Z,30.90
2019-05-19T15:18:19.436Z,30.71
2019-05-19T15:20:50.527Z,30.79
2019-05-19T15:23:21.607Z,31.30
2019-05-19T15:25:52.685Z,31.72
2019-05-19T15:28:23.769Z,31.45
2019-05-19T15:30:54.826Z,31.35
2019-05-19T15:33:25.923Z,31.62
2019-05-19T15:35:57.449Z,31.70
2019-05-19T15:38:28.507Z,31.47
2019-05-19T15:40:59.598Z,31.67
2019-05-19T15:43:30.653Z,31.78
2019-05-19T15:46:01.716Z,31.86
2019-05-19T15:48:32.798Z,32.02
2019-05-19T15:51:03.866Z,31.89
2019-05-19T15:53:34.939Z,32.09
2019-05-19T15:56:06.003Z,31.72
2019-05-19T15:58:37.752Z,31.89
2019-05-19T16:01:08.812Z,31.97
2019-05-19T16:03:39.883Z,32.05
2019-05-19T16:06:10.969Z,32.10
2019-05-19T16:08:42.027Z,31.94
2019-05-19T16:11:13.095Z,32.09
2019-05-19T16:13:44.193Z,32.13
2019-05-19T16:16:15.327Z,31.81
2019-05-19T16:18:46.427Z,31.64
2019-05-19T16:21:17.567Z,31.58
2019-05-19T16:23:48.654Z,31.71
2019-05-19T16:26:19.752Z,31.81
2019-05-19T16:28:50.810Z,31.66
2019-05-19T16:31:21.909Z,31.46
2019-05-19T16:33:52.970Z,31.22
2019-05-19T16:36:24.029Z,31.16
2019-05-19T16:38:55.853Z,31.42
2019-05-19T16:41:26.984Z,31.19
2019-05-19T16:43:58.034Z,31.10
2019-05-19T16:46:29.129Z,31.29
2019-05-19T16:49:01.584Z,31.26
2019-05-19T16:51:32.699Z,31.10
2019-05-19T16:54:05.381Z,31.17
2019-05-19T16:56:36.511Z,31.18
2019-05-19T16:59:07.583Z,31.17
2019-05-19T17:01:38.702Z,31.26
2019-05-19T17:04:09.805Z,31.32
2019-05-19T17:06:40.870Z,31.90
2019-05-19T17:09:11.945Z,31.99
2019-05-19T17:11:43.036Z,32.12
2019-05-19T17:14:14.317Z,31.84
2019-05-19T17:16:45.452Z,31.77
2019-05-19T17:19:16.508Z,31.63
2019-05-19T17:21:48.665Z,31.90
2019-05-19T17:27:26.566Z,32.39
2019-05-19T17:30:00.271Z,32.34
2019-05-19T17:32:32.445Z,32.79
2019-05-19T17:35:04.397Z,33.14
2019-05-19T17:37:39.349Z,33.06
2019-05-19T17:40:11.712Z,33.30
2019-05-19T17:42:44.578Z,33.48
2019-05-19T17:45:16.502Z,33.58
2019-05-19T17:47:47.637Z,33.63
2019-05-19T17:50:31.641Z,33.69
2019-05-19T17:53:03.866Z,33.89
2019-05-19T17:55:36.472Z,33.97
2019-05-19T17:58:08.625Z,34.05
2019-05-19T18:00:44.267Z,34.15
2019-05-19T18:03:15.473Z,34.15
2019-05-19T18:05:46.597Z,34.22
2019-05-19T18:08:17.704Z,34.25
2019-05-19T18:10:49.849Z,34.31
2019-05-19T18:13:31.819Z,34.42
2019-05-19T18:16:14.367Z,34.60
2019-05-19T18:18:50.558Z,34.72
2019-05-19T18:21:21.630Z,34.84
2019-05-19T18:23:52.713Z,34.93
2019-05-19T18:26:29.476Z,34.97
2019-05-19T18:29:00.534Z,35.04
2019-05-19T18:31:31.639Z,35.10
2019-05-19T18:34:03.466Z,35.25
2019-05-19T18:36:34.545Z,35.29
2019-05-19T18:39:07.066Z,35.64
2019-05-19T18:41:38.683Z,35.62
2019-05-19T18:44:09.796Z,35.71
2019-05-19T18:46:40.898Z,35.77
2019-05-19T18:49:11.973Z,35.75
2019-05-19T18:51:44.103Z,35.71
2019-05-19T18:54:15.167Z,35.89
2019-05-19T18:57:07.557Z,36.03
2019-05-19T19:00:24.636Z,36.12
2019-05-19T19:02:51.792Z,36.17
2019-05-19T19:05:23.935Z,36.31
2019-05-19T19:07:55.483Z,36.44
2019-05-19T19:10:26.581Z,36.62
2019-05-19T19:12:57.725Z,36.73
2019-05-19T19:15:28.807Z,36.75
2019-05-19T19:17:59.886Z,36.90
2019-05-19T19:20:34.401Z,37.01
2019-05-19T19:23:05.051Z,37.16
2019-05-19T19:25:36.002Z,37.15
2019-05-19T19:28:22.084Z,37.48
2019-05-19T19:31:17.872Z,37.64
2019-05-19T19:33:49.601Z,37.77
2019-05-19T19:36:20.655Z,37.81
2019-05-19T19:38:54.205Z,38.03
2019-05-19T19:41:25.275Z,38.23
2019-05-19T19:43:57.254Z,38.26
2019-05-19T19:46:28.408Z,38.38
2019-05-19T19:48:59.460Z,38.50
2019-05-19T19:51:30.529Z,38.63
2019-05-19T19:54:01.924Z,38.81
2019-05-19T19:56:33.147Z,38.90
2019-05-19T19:59:04.232Z,38.96
2019-05-19T20:01:35.292Z,38.99
2019-05-19T20:04:06.348Z,39.01
2019-05-19T20:06:37.418Z,39.02
2019-05-19T20:09:08.538Z,39.05
2019-05-19T20:11:39.683Z,38.95
2019-05-19T20:14:15.323Z,38.95
2019-05-19T20:16:47.483Z,39.02
2019-05-19T20:19:18.543Z,39.15
2019-05-19T20:21:49.589Z,38.91
2019-05-19T20:24:20.642Z,38.73
2019-05-19T20:26:51.863Z,38.50
2019-05-19T20:29:23.222Z,38.33
2019-05-19T20:31:54.299Z,38.23
2019-05-19T20:34:25.359Z,38.40
2019-05-19T20:36:56.428Z,38.28
2019-05-19T20:39:27.488Z,38.12
2019-05-19T20:41:58.561Z,38.03
2019-05-19T20:44:29.636Z,37.95
2019-05-19T20:47:00.705Z,38.00
2019-05-19T20:49:31.761Z,37.97
2019-05-19T20:52:03.298Z,37.92
2019-05-19T20:54:34.352Z,37.91
2019-05-19T20:57:05.413Z,37.88
2019-05-19T20:59:36.473Z,37.86
2019-05-19T21:02:07.536Z,37.95
2019-05-19T21:04:38.652Z,37.89
2019-05-19T21:07:09.693Z,37.88
2019-05-19T21:09:40.807Z,37.87
2019-05-19T21:12:11.840Z,37.89
2019-05-19T21:14:43.956Z,37.94
2019-05-19T21:17:15.029Z,37.93
2019-05-19T21:19:46.090Z,37.94
2019-05-19T21:22:17.154Z,37.96
2019-05-19T21:24:48.243Z,37.97
2019-05-19T21:27:19.301Z,38.03
2019-05-19T21:29:50.413Z,38.01
2019-05-19T21:32:21.478Z,38.07
2019-05-19T21:34:52.544Z,38.11
2019-05-19T21:37:23.696Z,38.14
2019-05-19T21:39:54.750Z,38.23
2019-05-19T21:42:26.771Z,38.26
2019-05-19T21:44:57.835Z,38.23
2019-05-19T21:47:28.978Z,38.26
2019-05-19T21:50:00.036Z,38.29
2019-05-19T21:52:31.122Z,38.34
2019-05-19T21:55:03.827Z,38.48
2019-05-19T21:57:34.891Z,38.47
2019-05-19T22:00:09.713Z,38.52
2019-05-19T22:02:40.774Z,38.54
2019-05-19T22:05:12.087Z,38.64
2019-05-19T22:07:50.617Z,38.61
2019-05-19T22:10:21.936Z,38.58
2019-05-19T22:12:53.020Z,38.57
2019-05-19T22:15:24.271Z,38.59
2019-05-19T22:17:56.292Z,38.62
2019-05-19T22:20:27.393Z,38.71
2019-05-19T22:22:58.449Z,38.70
2019-05-19T22:25:29.504Z,38.76
2019-05-19T22:28:00.600Z,38.83
2019-05-19T22:30:31.659Z,38.79
2019-05-19T22:33:04.179Z,38.80
2019-05-19T22:35:35.245Z,38.79
2019-05-19T22:38:09.322Z,38.84
2019-05-19T22:40:39.179Z,38.90
2019-05-19T22:43:10.216Z,38.91
2019-05-19T22:45:41.276Z,38.89
2019-05-19T22:48:12.355Z,38.96
2019-05-19T22:50:45.275Z,38.99
2019-05-19T22:53:16.342Z,39.03
2019-05-19T22:55:47.408Z,39.17
2019-05-19T22:58:18.479Z,39.31
2019-05-19T23:00:49.545Z,39.43
2019-05-19T23:03:20.587Z,39.27
2019-05-19T23:05:51.649Z,39.34
2019-05-19T23:08:23.286Z,39.33
2019-05-19T23:10:54.341Z,39.54
2019-05-19T23:13:25.411Z,39.55
2019-05-19T23:15:56.483Z,39.68
2019-05-19T23:18:27.558Z,39.59
2019-05-19T23:20:59.589Z,39.83
2019-05-19T23:23:30.659Z,39.91
2019-05-19T23:26:01.752Z,39.85
2019-05-19T23:28:32.821Z,39.98
2019-05-19T23:31:03.907Z,39.93
2019-05-19T23:33:35.000Z,39.97
2019-05-19T23:36:06.071Z,40.07
2019-05-19T23:38:37.188Z,40.06
2019-05-19T23:41:09.245Z,40.03
2019-05-19T23:43:40.329Z,40.09
2019-05-19T23:46:11.430Z,40.02
2019-05-19T23:48:43.578Z,40.09
2019-05-19T23:51:14.710Z,40.16
2019-05-19T23:53:45.786Z,40.22
2019-05-19T23:56:16.851Z,40.22
2019-05-19T23:58:52.509Z,40.27
